Kansas City, KS (66101)

10:36 PM CDT on September 26, 2016 (GMT -0500)
Scott's North Kansas City Station | | Change Station

Elev 758 ft 39.15 °N, 94.57 °W | Updated 12 minutes ago

Clear
Clear
58.3 °F
Feels Like 58.3 °F
N
0.0
Wind Variable Wind from North
Gusts 0.0 mph

Today
High -- | Low -- °F
--% Chance of Precip.
Yesterday
High -- | Low -- °F
Precip. -- in
Pressure 30.11 in
Visibility 10.0 miles
Clouds Clear
Dew Point 51 °F
Humidity 77%
Rainfall 0.00 in
Snow Depth Not available.
7:10 AM 7:08 PM
Waning Crescent, 14% visible
METAR KMKC 270254Z 21004KT 10SM CLR 17/09 A3011 RMK AO2 SLP195 T01720094 56002
Pressure 30.11 in
Visibility 10.0 miles
Clouds Clear
Dew Point 51 °F
Humidity 77%
Rainfall 0.00 in
Snow Depth Not available.
7:10 AM 7:08 PM
Waning Crescent, 14% visible
METAR KMKC 270254Z 21004KT 10SM CLR 17/09 A3011 RMK AO2 SLP195 T01720094 56002

10-Day Weather Forecast

Almanac

Astronomy

Sep. 26, 2016 Rise Set
Actual Time
Civil Twilight
Nautical Twilight
Astronomical Twilight
Moon
Length of Visible Light
Length of Day
Tomorrow will be .
, % of the Moon is Illuminated

Today's Extremes

State Highs State Lows

Community

WunderPhotos

Upload Photos

1,942,028 photos uploaded!

WunderBlog® & News

Nearby

Air Quality

  Air Quality AQ Index Pollutant
Not available.

Snow Depth

Station Depth Elevation

Earthquake Activity

City Distance Mag. Time & Date
Minimum magnitude displayed is 2.5.

Coastal Water Temperatures

Place Temperature

Stations

Nearby Weather Stations

Station Location Temp. Windchill Dew Point Humidity Wind Precip. Elev Updated Type
                   

Watches & Warnings

There are currently no watches in effect.